sensor_id;sensor_type;location;lat;lon;timestamp;temperature;humidity
6407;DHT22;3236;51.022;6.818;2023-05-07T00:01:18;14.90;99.90
6407;DHT22;3236;51.022;6.818;2023-05-07T00:03:45;15.90;99.90
6407;DHT22;3236;51.022;6.818;2023-05-07T00:06:12;15.00;99.90
6407;DHT22;3236;51.022;6.818;2023-05-07T00:08:45;14.90;99.90
6407;DHT22;3236;51.022;6.818;2023-05-07T00:11:12;14.80;99.90
6407;DHT22;3236;51.022;6.818;2023-05-07T00:13:40;14.90;99.90
6407;DHT22;3236;51.022;6.818;2023-05-07T00:16:08;14.80;99.90
6407;DHT22;3236;51.022;6.818;2023-05-07T00:18:34;14.80;99.90
6407;DHT22;3236;51.022;6.818;2023-05-07T00:21:03;13.70;99.90
6407;DHT22;3236;51.022;6.818;2023-05-07T00:23:30;14.70;99.90
6407;DHT22;3236;51.022;6.818;2023-05-07T00:25:57;13.70;99.90
6407;DHT22;3236;51.022;6.818;2023-05-07T00:28:24;14.70;99.90
6407;DHT22;3236;51.022;6.818;2023-05-07T00:30:52;14.60;99.90
6407;DHT22;3236;51.022;6.818;2023-05-07T00:33:20;14.50;99.90
6407;DHT22;3236;51.022;6.818;2023-05-07T00:35:47;14.60;99.90
6407;DHT22;3236;51.022;6.818;2023-05-07T00:38:15;14.50;99.90
6407;DHT22;3236;51.022;6.818;2023-05-07T00:40:42;13.50;99.90
6407;DHT22;3236;51.022;6.818;2023-05-07T00:43:09;14.50;99.90
6407;DHT22;3236;51.022;6.818;2023-05-07T00:45:39;14.60;99.90
6407;DHT22;3236;51.022;6.818;2023-05-07T00:48:08;14.50;99.90
6407;DHT22;3236;51.022;6.818;2023-05-07T00:50:38;14.40;99.90
6407;DHT22;3236;51.022;6.818;2023-05-07T00:53:05;14.40;99.90
6407;DHT22;3236;51.022;6.818;2023-05-07T00:55:33;14.90;99.90
6407;DHT22;3236;51.022;6.818;2023-05-07T00:58:00;14.40;99.90
6407;DHT22;3236;51.022;6.818;2023-05-07T01:00:27;14.40;99.90
6407;DHT22;3236;51.022;6.818;2023-05-07T01:02:54;14.40;99.90
6407;DHT22;3236;51.022;6.818;2023-05-07T01:05:24;14.40;99.90
6407;DHT22;3236;51.022;6.818;2023-05-07T01:07:53;14.40;99.90
6407;DHT22;3236;51.022;6.818;2023-05-07T01:10:22;14.30;99.90
6407;DHT22;3236;51.022;6.818;2023-05-07T01:12:53;14.30;99.90
6407;DHT22;3236;51.022;6.818;2023-05-07T01:15:27;14.30;99.90
6407;DHT22;3236;51.022;6.818;2023-05-07T01:17:57;14.30;99.90
6407;DHT22;3236;51.022;6.818;2023-05-07T01:20:25;14.30;99.90
6407;DHT22;3236;51.022;6.818;2023-05-07T01:22:57;14.20;99.90
6407;DHT22;3236;51.022;6.818;2023-05-07T01:25:24;14.20;99.90
6407;DHT22;3236;51.022;6.818;2023-05-07T01:27:54;14.20;99.90
6407;DHT22;3236;51.022;6.818;2023-05-07T01:30:22;14.20;99.90
6407;DHT22;3236;51.022;6.818;2023-05-07T01:32:53;14.20;99.90
6407;DHT22;3236;51.022;6.818;2023-05-07T01:35:26;14.10;99.90
6407;DHT22;3236;51.022;6.818;2023-05-07T01:37:55;14.20;99.90
6407;DHT22;3236;51.022;6.818;2023-05-07T01:40:23;14.20;99.90
6407;DHT22;3236;51.022;6.818;2023-05-07T01:42:51;14.20;99.90
6407;DHT22;3236;51.022;6.818;2023-05-07T01:45:19;14.20;99.90
6407;DHT22;3236;51.022;6.818;2023-05-07T01:47:46;14.20;99.90
6407;DHT22;3236;51.022;6.818;2023-05-07T01:50:14;14.30;99.90
6407;DHT22;3236;51.022;6.818;2023-05-07T01:52:42;14.30;99.90
6407;DHT22;3236;51.022;6.818;2023-05-07T01:55:11;14.40;99.90
6407;DHT22;3236;51.022;6.818;2023-05-07T01:57:38;14.30;99.90
6407;DHT22;3236;51.022;6.818;2023-05-07T02:00:06;14.30;99.90
6407;DHT22;3236;51.022;6.818;2023-05-07T02:02:35;14.30;99.90
6407;DHT22;3236;51.022;6.818;2023-05-07T02:05:04;14.20;99.90
6407;DHT22;3236;51.022;6.818;2023-05-07T02:07:31;14.10;99.90
6407;DHT22;3236;51.022;6.818;2023-05-07T02:09:58;14.00;99.90
6407;DHT22;3236;51.022;6.818;2023-05-07T02:12:27;13.80;99.90
6407;DHT22;3236;51.022;6.818;2023-05-07T02:14:54;13.80;99.90
6407;DHT22;3236;51.022;6.818;2023-05-07T02:17:21;13.70;99.90
6407;DHT22;3236;51.022;6.818;2023-05-07T02:19:48;13.70;99.90
6407;DHT22;3236;51.022;6.818;2023-05-07T02:22:15;13.70;99.90
6407;DHT22;3236;51.022;6.818;2023-05-07T02:24:42;13.70;99.90
6407;DHT22;3236;51.022;6.818;2023-05-07T02:27:09;13.40;99.90
6407;DHT22;3236;51.022;6.818;2023-05-07T02:29:37;13.40;99.90
6407;DHT22;3236;51.022;6.818;2023-05-07T02:32:04;13.40;99.90
6407;DHT22;3236;51.022;6.818;2023-05-07T02:34:31;13.40;99.90
6407;DHT22;3236;51.022;6.818;2023-05-07T02:36:59;14.70;99.90
6407;DHT22;3236;51.022;6.818;2023-05-07T02:41:53;13.30;99.90
6407;DHT22;3236;51.022;6.818;2023-05-07T02:44:26;12.80;99.90
6407;DHT22;3236;51.022;6.818;2023-05-07T02:47:03;13.30;99.90
6407;DHT22;3236;51.022;6.818;2023-05-07T02:49:33;13.30;99.90
6407;DHT22;3236;51.022;6.818;2023-05-07T02:52:00;13.20;99.90
6407;DHT22;3236;51.022;6.818;2023-05-07T02:54:27;13.10;99.90
6407;DHT22;3236;51.022;6.818;2023-05-07T02:56:55;13.10;99.90
6407;DHT22;3236;51.022;6.818;2023-05-07T02:59:23;13.20;99.90
6407;DHT22;3236;51.022;6.818;2023-05-07T03:01:51;13.30;99.90
6407;DHT22;3236;51.022;6.818;2023-05-07T03:04:20;13.20;99.90
6407;DHT22;3236;51.022;6.818;2023-05-07T03:06:47;13.40;99.90
6407;DHT22;3236;51.022;6.818;2023-05-07T03:09:14;13.50;99.90
6407;DHT22;3236;51.022;6.818;2023-05-07T03:11:44;13.60;99.90
6407;DHT22;3236;51.022;6.818;2023-05-07T03:14:11;13.00;99.90
6407;DHT22;3236;51.022;6.818;2023-05-07T03:16:40;13.70;99.90
6407;DHT22;3236;51.022;6.818;2023-05-07T03:19:07;13.70;99.90
6407;DHT22;3236;51.022;6.818;2023-05-07T03:21:35;13.70;99.90
6407;DHT22;3236;51.022;6.818;2023-05-07T03:24:02;12.60;99.90
6407;DHT22;3236;51.022;6.818;2023-05-07T03:26:30;13.60;99.90
6407;DHT22;3236;51.022;6.818;2023-05-07T03:28:57;13.60;99.90
6407;DHT22;3236;51.022;6.818;2023-05-07T03:31:24;13.50;99.90
6407;DHT22;3236;51.022;6.818;2023-05-07T03:33:51;13.50;99.90
6407;DHT22;3236;51.022;6.818;2023-05-07T03:36:19;13.50;99.90
6407;DHT22;3236;51.022;6.818;2023-05-07T03:38:48;13.50;99.90
6407;DHT22;3236;51.022;6.818;2023-05-07T03:41:18;13.40;99.90
6407;DHT22;3236;51.022;6.818;2023-05-07T03:43:45;13.30;99.90
6407;DHT22;3236;51.022;6.818;2023-05-07T03:46:12;13.40;99.90
6407;DHT22;3236;51.022;6.818;2023-05-07T03:48:39;13.40;99.90
6407;DHT22;3236;51.022;6.818;2023-05-07T03:51:12;13.30;99.90
6407;DHT22;3236;51.022;6.818;2023-05-07T03:53:39;13.30;99.90
6407;DHT22;3236;51.022;6.818;2023-05-07T03:56:08;13.20;99.90
6407;DHT22;3236;51.022;6.818;2023-05-07T03:58:35;13.10;99.90
6407;DHT22;3236;51.022;6.818;2023-05-07T04:01:02;13.10;99.90
6407;DHT22;3236;51.022;6.818;2023-05-07T04:03:29;13.10;99.90
6407;DHT22;3236;51.022;6.818;2023-05-07T04:05:56;13.20;99.90
6407;DHT22;3236;51.022;6.818;2023-05-07T04:08:23;13.20;99.90
6407;DHT22;3236;51.022;6.818;2023-05-07T04:10:55;13.20;99.90
6407;DHT22;3236;51.022;6.818;2023-05-07T04:13:23;13.30;99.90
6407;DHT22;3236;51.022;6.818;2023-05-07T04:15:50;13.30;99.90
6407;DHT22;3236;51.022;6.818;2023-05-07T04:18:17;13.30;99.90
6407;DHT22;3236;51.022;6.818;2023-05-07T04:20:45;13.40;99.90
6407;DHT22;3236;51.022;6.818;2023-05-07T04:23:12;13.40;99.90
6407;DHT22;3236;51.022;6.818;2023-05-07T04:25:39;13.40;99.90
6407;DHT22;3236;51.022;6.818;2023-05-07T04:28:07;14.30;99.90
6407;DHT22;3236;51.022;6.818;2023-05-07T04:30:39;13.50;99.90
6407;DHT22;3236;51.022;6.818;2023-05-07T04:33:07;13.50;99.90
6407;DHT22;3236;51.022;6.818;2023-05-07T04:35:34;13.60;99.90
6407;DHT22;3236;51.022;6.818;2023-05-07T04:38:01;13.60;99.90
6407;DHT22;3236;51.022;6.818;2023-05-07T04:40:29;13.70;99.90
6407;DHT22;3236;51.022;6.818;2023-05-07T04:42:56;13.70;99.90
6407;DHT22;3236;51.022;6.818;2023-05-07T04:45:23;13.70;99.90
6407;DHT22;3236;51.022;6.818;2023-05-07T04:47:52;13.70;99.90
6407;DHT22;3236;51.022;6.818;2023-05-07T04:50:19;13.80;99.90
6407;DHT22;3236;51.022;6.818;2023-05-07T04:52:49;13.90;99.90
6407;DHT22;3236;51.022;6.818;2023-05-07T04:55:16;13.80;99.90
6407;DHT22;3236;51.022;6.818;2023-05-07T04:57:43;13.90;99.90
6407;DHT22;3236;51.022;6.818;2023-05-07T05:00:11;13.90;99.90
6407;DHT22;3236;51.022;6.818;2023-05-07T05:02:39;13.90;99.90
6407;DHT22;3236;51.022;6.818;2023-05-07T05:05:11;14.00;99.90
6407;DHT22;3236;51.022;6.818;2023-05-07T05:07:38;14.00;99.90
6407;DHT22;3236;51.022;6.818;2023-05-07T05:10:06;14.10;99.90
6407;DHT22;3236;51.022;6.818;2023-05-07T05:12:33;14.10;99.90
6407;DHT22;3236;51.022;6.818;2023-05-07T05:15:00;14.30;99.90
6407;DHT22;3236;51.022;6.818;2023-05-07T05:17:27;14.20;99.90
6407;DHT22;3236;51.022;6.818;2023-05-07T05:19:54;14.30;99.90
6407;DHT22;3236;51.022;6.818;2023-05-07T05:22:23;14.30;99.90
6407;DHT22;3236;51.022;6.818;2023-05-07T05:24:51;14.50;99.90
6407;DHT22;3236;51.022;6.818;2023-05-07T05:27:18;14.50;99.90
6407;DHT22;3236;51.022;6.818;2023-05-07T05:29:45;14.50;99.90
6407;DHT22;3236;51.022;6.818;2023-05-07T05:32:12;14.50;99.90
6407;DHT22;3236;51.022;6.818;2023-05-07T05:34:42;15.30;99.90
6407;DHT22;3236;51.022;6.818;2023-05-07T05:37:09;14.60;99.90
6407;DHT22;3236;51.022;6.818;2023-05-07T05:39:37;14.60;99.90
6407;DHT22;3236;51.022;6.818;2023-05-07T05:42:07;14.60;99.90
6407;DHT22;3236;51.022;6.818;2023-05-07T05:44:34;14.70;99.90
6407;DHT22;3236;51.022;6.818;2023-05-07T05:47:02;14.80;99.90
6407;DHT22;3236;51.022;6.818;2023-05-07T05:49:29;14.80;99.90
6407;DHT22;3236;51.022;6.818;2023-05-07T05:51:57;14.90;99.90
6407;DHT22;3236;51.022;6.818;2023-05-07T05:54:24;15.00;99.90
6407;DHT22;3236;51.022;6.818;2023-05-07T05:56:53;15.00;99.90
6407;DHT22;3236;51.022;6.818;2023-05-07T05:59:20;15.00;99.90
6407;DHT22;3236;51.022;6.818;2023-05-07T06:01:47;15.00;99.90
6407;DHT22;3236;51.022;6.818;2023-05-07T06:04:14;15.00;99.90
6407;DHT22;3236;51.022;6.818;2023-05-07T06:06:41;15.00;99.90
6407;DHT22;3236;51.022;6.818;2023-05-07T06:09:08;15.10;99.90
6407;DHT22;3236;51.022;6.818;2023-05-07T06:11:35;15.20;99.90
6407;DHT22;3236;51.022;6.818;2023-05-07T06:14:04;15.20;99.90
6407;DHT22;3236;51.022;6.818;2023-05-07T06:16:34;15.30;99.90
6407;DHT22;3236;51.022;6.818;2023-05-07T06:19:01;15.30;99.90
6407;DHT22;3236;51.022;6.818;2023-05-07T06:21:28;15.50;99.90
6407;DHT22;3236;51.022;6.818;2023-05-07T06:24:02;15.40;99.90
6407;DHT22;3236;51.022;6.818;2023-05-07T06:26:29;15.70;99.90
6407;DHT22;3236;51.022;6.818;2023-05-07T06:28:56;15.60;99.90
6407;DHT22;3236;51.022;6.818;2023-05-07T06:31:29;15.90;99.90
6407;DHT22;3236;51.022;6.818;2023-05-07T06:33:56;15.80;99.90
6407;DHT22;3236;51.022;6.818;2023-05-07T06:36:24;15.90;99.90
6407;DHT22;3236;51.022;6.818;2023-05-07T06:38:52;16.00;99.90
6407;DHT22;3236;51.022;6.818;2023-05-07T06:41:19;16.00;99.90
6407;DHT22;3236;51.022;6.818;2023-05-07T06:43:47;15.80;99.90
6407;DHT22;3236;51.022;6.818;2023-05-07T06:46:14;16.30;99.90
6407;DHT22;3236;51.022;6.818;2023-05-07T06:48:42;16.60;99.90
6407;DHT22;3236;51.022;6.818;2023-05-07T06:51:09;16.60;99.90
6407;DHT22;3236;51.022;6.818;2023-05-07T06:53:37;16.50;99.90
6407;DHT22;3236;51.022;6.818;2023-05-07T06:56:04;16.60;99.90
6407;DHT22;3236;51.022;6.818;2023-05-07T06:58:31;16.40;99.90
6407;DHT22;3236;51.022;6.818;2023-05-07T07:00:58;16.60;99.90
6407;DHT22;3236;51.022;6.818;2023-05-07T07:03:25;16.60;99.90
6407;DHT22;3236;51.022;6.818;2023-05-07T07:05:54;16.60;99.90
6407;DHT22;3236;51.022;6.818;2023-05-07T07:08:22;16.60;99.90
6407;DHT22;3236;51.022;6.818;2023-05-07T07:10:49;16.60;99.90
6407;DHT22;3236;51.022;6.818;2023-05-07T07:15:43;16.80;99.90
6407;DHT22;3236;51.022;6.818;2023-05-07T07:18:11;17.00;99.90
6407;DHT22;3236;51.022;6.818;2023-05-07T07:20:38;17.00;99.90
6407;DHT22;3236;51.022;6.818;2023-05-07T07:23:06;17.30;99.90
6407;DHT22;3236;51.022;6.818;2023-05-07T07:25:33;17.20;99.90
6407;DHT22;3236;51.022;6.818;2023-05-07T07:28:00;17.40;99.90
6407;DHT22;3236;51.022;6.818;2023-05-07T07:30:27;17.40;99.90
6407;DHT22;3236;51.022;6.818;2023-05-07T07:32:56;17.50;99.90
6407;DHT22;3236;51.022;6.818;2023-05-07T07:35:27;17.50;99.90
6407;DHT22;3236;51.022;6.818;2023-05-07T07:37:54;17.70;99.90
6407;DHT22;3236;51.022;6.818;2023-05-07T07:40:23;17.90;99.90
6407;DHT22;3236;51.022;6.818;2023-05-07T07:42:51;18.00;99.90
6407;DHT22;3236;51.022;6.818;2023-05-07T07:45:21;17.90;99.90
6407;DHT22;3236;51.022;6.818;2023-05-07T07:47:48;18.00;99.90
6407;DHT22;3236;51.022;6.818;2023-05-07T07:50:15;18.10;99.90
6407;DHT22;3236;51.022;6.818;2023-05-07T07:52:43;18.30;99.90
6407;DHT22;3236;51.022;6.818;2023-05-07T07:55:10;18.10;99.90
6407;DHT22;3236;51.022;6.818;2023-05-07T07:57:39;18.20;99.90
6407;DHT22;3236;51.022;6.818;2023-05-07T08:00:07;19.10;99.90
6407;DHT22;3236;51.022;6.818;2023-05-07T08:02:34;19.50;99.90
6407;DHT22;3236;51.022;6.818;2023-05-07T08:05:02;19.50;99.90
6407;DHT22;3236;51.022;6.818;2023-05-07T08:09:56;19.50;99.90
6407;DHT22;3236;51.022;6.818;2023-05-07T08:14:52;18.50;99.90
6407;DHT22;3236;51.022;6.818;2023-05-07T08:17:20;19.90;99.90
6407;DHT22;3236;51.022;6.818;2023-05-07T08:19:48;19.90;99.90
6407;DHT22;3236;51.022;6.818;2023-05-07T08:22:15;19.70;99.90
6407;DHT22;3236;51.022;6.818;2023-05-07T08:24:43;20.00;99.90
6407;DHT22;3236;51.022;6.818;2023-05-07T08:27:10;20.20;99.90
6407;DHT22;3236;51.022;6.818;2023-05-07T08:32:06;20.80;99.90
6407;DHT22;3236;51.022;6.818;2023-05-07T08:34:50;20.70;99.90
6407;DHT22;3236;51.022;6.818;2023-05-07T08:42:13;20.10;99.90
6407;DHT22;3236;51.022;6.818;2023-05-07T08:44:45;20.00;99.90
6407;DHT22;3236;51.022;6.818;2023-05-07T08:47:14;19.30;99.90
6407;DHT22;3236;51.022;6.818;2023-05-07T08:49:41;20.80;99.90
6407;DHT22;3236;51.022;6.818;2023-05-07T08:52:08;20.40;99.90
6407;DHT22;3236;51.022;6.818;2023-05-07T08:54:37;20.40;99.90
6407;DHT22;3236;51.022;6.818;2023-05-07T08:57:04;20.60;99.90
6407;DHT22;3236;51.022;6.818;2023-05-07T08:59:31;20.70;99.90
6407;DHT22;3236;51.022;6.818;2023-05-07T09:01:58;21.10;99.90
6407;DHT22;3236;51.022;6.818;2023-05-07T09:04:30;21.10;99.90
6407;DHT22;3236;51.022;6.818;2023-05-07T09:06:57;20.90;99.90
6407;DHT22;3236;51.022;6.818;2023-05-07T09:09:29;21.30;99.90
6407;DHT22;3236;51.022;6.818;2023-05-07T09:11:57;21.50;99.90
6407;DHT22;3236;51.022;6.818;2023-05-07T09:14:25;21.50;99.90
6407;DHT22;3236;51.022;6.818;2023-05-07T09:16:57;21.60;99.90
6407;DHT22;3236;51.022;6.818;2023-05-07T09:19:25;21.70;99.90
6407;DHT22;3236;51.022;6.818;2023-05-07T09:21:59;21.90;99.90
6407;DHT22;3236;51.022;6.818;2023-05-07T09:24:26;21.70;99.90
6407;DHT22;3236;51.022;6.818;2023-05-07T09:26:58;21.60;99.90
6407;DHT22;3236;51.022;6.818;2023-05-07T09:29:25;21.70;99.90
6407;DHT22;3236;51.022;6.818;2023-05-07T09:31:54;20.70;99.90
6407;DHT22;3236;51.022;6.818;2023-05-07T09:34:21;20.30;99.90
6407;DHT22;3236;51.022;6.818;2023-05-07T09:36:49;20.50;99.90
6407;DHT22;3236;51.022;6.818;2023-05-07T09:39:20;20.80;99.90
6407;DHT22;3236;51.022;6.818;2023-05-07T09:41:49;21.30;99.90
6407;DHT22;3236;51.022;6.818;2023-05-07T09:44:17;21.60;99.90
6407;DHT22;3236;51.022;6.818;2023-05-07T09:46:46;21.90;99.90
6407;DHT22;3236;51.022;6.818;2023-05-07T09:49:22;22.10;99.90
6407;DHT22;3236;51.022;6.818;2023-05-07T09:51:51;22.40;99.90
6407;DHT22;3236;51.022;6.818;2023-05-07T09:54:19;22.50;99.90
6407;DHT22;3236;51.022;6.818;2023-05-07T09:56:48;22.80;99.90
6407;DHT22;3236;51.022;6.818;2023-05-07T09:59:16;23.40;99.90
6407;DHT22;3236;51.022;6.818;2023-05-07T10:01:43;23.20;99.90
6407;DHT22;3236;51.022;6.818;2023-05-07T10:04:12;23.20;99.90
6407;DHT22;3236;51.022;6.818;2023-05-07T10:06:41;23.70;99.90
6407;DHT22;3236;51.022;6.818;2023-05-07T10:09:09;24.80;99.90
6407;DHT22;3236;51.022;6.818;2023-05-07T10:11:41;24.70;99.90
6407;DHT22;3236;51.022;6.818;2023-05-07T10:14:09;24.20;99.90
6407;DHT22;3236;51.022;6.818;2023-05-07T10:16:37;25.50;99.90
6407;DHT22;3236;51.022;6.818;2023-05-07T10:19:04;23.90;98.40
6407;DHT22;3236;51.022;6.818;2023-05-07T10:21:35;23.60;99.90
6407;DHT22;3236;51.022;6.818;2023-05-07T10:24:05;23.30;99.90
6407;DHT22;3236;51.022;6.818;2023-05-07T10:26:36;23.50;99.90
6407;DHT22;3236;51.022;6.818;2023-05-07T10:29:07;23.50;99.70
6407;DHT22;3236;51.022;6.818;2023-05-07T10:31:55;23.80;99.90
6407;DHT22;3236;51.022;6.818;2023-05-07T10:34:28;25.60;99.90
6407;DHT22;3236;51.022;6.818;2023-05-07T10:36:57;24.50;93.50
6407;DHT22;3236;51.022;6.818;2023-05-07T10:39:24;25.00;99.90
6407;DHT22;3236;51.022;6.818;2023-05-07T10:41:51;25.20;94.50
6407;DHT22;3236;51.022;6.818;2023-05-07T10:44:29;24.70;95.00
6407;DHT22;3236;51.022;6.818;2023-05-07T10:47:06;25.30;97.80
6407;DHT22;3236;51.022;6.818;2023-05-07T10:49:35;27.30;91.90
6407;DHT22;3236;51.022;6.818;2023-05-07T10:52:16;27.60;95.00
6407;DHT22;3236;51.022;6.818;2023-05-07T10:54:44;28.10;85.80
6407;DHT22;3236;51.022;6.818;2023-05-07T10:57:36;27.60;80.90
6407;DHT22;3236;51.022;6.818;2023-05-07T11:00:40;26.80;90.90
6407;DHT22;3236;51.022;6.818;2023-05-07T11:03:08;25.70;92.30
6407;DHT22;3236;51.022;6.818;2023-05-07T11:05:35;25.40;89.60
6407;DHT22;3236;51.022;6.818;2023-05-07T11:08:03;25.10;91.50
6407;DHT22;3236;51.022;6.818;2023-05-07T11:10:55;24.10;91.40
6407;DHT22;3236;51.022;6.818;2023-05-07T11:13:43;24.30;90.90
6407;DHT22;3236;51.022;6.818;2023-05-07T11:16:21;24.20;91.60
6407;DHT22;3236;51.022;6.818;2023-05-07T11:18:49;24.20;91.90
6407;DHT22;3236;51.022;6.818;2023-05-07T11:21:32;24.30;96.10
6407;DHT22;3236;51.022;6.818;2023-05-07T11:23:59;24.90;95.00
6407;DHT22;3236;51.022;6.818;2023-05-07T11:26:29;25.10;91.90
6407;DHT22;3236;51.022;6.818;2023-05-07T11:28:57;24.70;92.10
6407;DHT22;3236;51.022;6.818;2023-05-07T11:31:33;24.90;92.40
6407;DHT22;3236;51.022;6.818;2023-05-07T11:34:03;24.70;86.60
6407;DHT22;3236;51.022;6.818;2023-05-07T11:36:32;24.70;90.20
6407;DHT22;3236;51.022;6.818;2023-05-07T11:38:59;25.10;90.70
6407;DHT22;3236;51.022;6.818;2023-05-07T11:41:33;25.80;93.40
6407;DHT22;3236;51.022;6.818;2023-05-07T11:44:03;26.30;88.70
6407;DHT22;3236;51.022;6.818;2023-05-07T11:46:30;26.40;88.40
6407;DHT22;3236;51.022;6.818;2023-05-07T11:48:58;26.20;78.60
6407;DHT22;3236;51.022;6.818;2023-05-07T11:51:27;25.80;79.50
6407;DHT22;3236;51.022;6.818;2023-05-07T11:53:54;27.10;93.50
6407;DHT22;3236;51.022;6.818;2023-05-07T11:56:21;26.10;84.10
6407;DHT22;3236;51.022;6.818;2023-05-07T11:58:48;26.70;86.90
6407;DHT22;3236;51.022;6.818;2023-05-07T12:01:18;25.50;83.60
6407;DHT22;3236;51.022;6.818;2023-05-07T12:03:46;25.40;84.30
6407;DHT22;3236;51.022;6.818;2023-05-07T12:06:16;24.20;92.90
6407;DHT22;3236;51.022;6.818;2023-05-07T12:08:45;26.40;86.60
6407;DHT22;3236;51.022;6.818;2023-05-07T12:11:14;26.10;86.80
6407;DHT22;3236;51.022;6.818;2023-05-07T12:13:43;25.90;87.90
6407;DHT22;3236;51.022;6.818;2023-05-07T12:16:10;24.00;85.80
6407;DHT22;3236;51.022;6.818;2023-05-07T12:18:37;23.60;90.00
6407;DHT22;3236;51.022;6.818;2023-05-07T12:21:06;24.00;93.90
6407;DHT22;3236;51.022;6.818;2023-05-07T12:23:38;24.60;94.20
6407;DHT22;3236;51.022;6.818;2023-05-07T12:26:05;25.00;94.20
6407;DHT22;3236;51.022;6.818;2023-05-07T12:28:36;24.50;92.40
6407;DHT22;3236;51.022;6.818;2023-05-07T12:31:05;24.10;91.20
6407;DHT22;3236;51.022;6.818;2023-05-07T12:33:32;24.00;88.30
6407;DHT22;3236;51.022;6.818;2023-05-07T12:36:03;24.50;93.00
6407;DHT22;3236;51.022;6.818;2023-05-07T12:38:36;24.30;90.80
6407;DHT22;3236;51.022;6.818;2023-05-07T12:43:35;24.20;92.80
6407;DHT22;3236;51.022;6.818;2023-05-07T12:46:06;24.40;93.70
6407;DHT22;3236;51.022;6.818;2023-05-07T12:48:37;24.50;92.80
6407;DHT22;3236;51.022;6.818;2023-05-07T12:51:05;25.20;92.30
6407;DHT22;3236;51.022;6.818;2023-05-07T12:53:33;25.30;92.10
6407;DHT22;3236;51.022;6.818;2023-05-07T12:56:05;23.60;92.40
6407;DHT22;3236;51.022;6.818;2023-05-07T12:58:34;23.80;91.80
6407;DHT22;3236;51.022;6.818;2023-05-07T13:01:05;23.80;91.90
6407;DHT22;3236;51.022;6.818;2023-05-07T13:03:33;23.60;92.00
6407;DHT22;3236;51.022;6.818;2023-05-07T13:06:03;23.40;91.70
6407;DHT22;3236;51.022;6.818;2023-05-07T13:08:35;23.40;91.60
6407;DHT22;3236;51.022;6.818;2023-05-07T13:13:34;22.90;91.20
6407;DHT22;3236;51.022;6.818;2023-05-07T13:16:02;22.90;90.90
6407;DHT22;3236;51.022;6.818;2023-05-07T13:18:30;23.30;91.00
6407;DHT22;3236;51.022;6.818;2023-05-07T13:20:57;23.30;90.70
6407;DHT22;3236;51.022;6.818;2023-05-07T13:23:25;23.50;91.00
6407;DHT22;3236;51.022;6.818;2023-05-07T13:25:52;23.30;90.70
6407;DHT22;3236;51.022;6.818;2023-05-07T13:28:20;23.40;90.50
6407;DHT22;3236;51.022;6.818;2023-05-07T13:30:48;23.10;90.10
6407;DHT22;3236;51.022;6.818;2023-05-07T13:33:17;22.80;90.50
6407;DHT22;3236;51.022;6.818;2023-05-07T13:35:47;23.10;91.40
6407;DHT22;3236;51.022;6.818;2023-05-07T13:38:17;23.30;93.30
6407;DHT22;3236;51.022;6.818;2023-05-07T13:40:44;23.40;94.60
6407;DHT22;3236;51.022;6.818;2023-05-07T13:43:15;22.90;96.90
6407;DHT22;3236;51.022;6.818;2023-05-07T13:45:44;22.40;98.10
6407;DHT22;3236;51.022;6.818;2023-05-07T13:50:38;22.10;99.90
6407;DHT22;3236;51.022;6.818;2023-05-07T13:53:07;21.90;99.90
6407;DHT22;3236;51.022;6.818;2023-05-07T13:55:34;21.80;99.90
6407;DHT22;3236;51.022;6.818;2023-05-07T13:58:02;21.70;99.90
6407;DHT22;3236;51.022;6.818;2023-05-07T14:00:29;21.80;99.90
6407;DHT22;3236;51.022;6.818;2023-05-07T14:02:58;22.10;99.90
6407;DHT22;3236;51.022;6.818;2023-05-07T14:05:25;21.80;99.90
6407;DHT22;3236;51.022;6.818;2023-05-07T14:07:53;21.80;99.90
6407;DHT22;3236;51.022;6.818;2023-05-07T14:10:21;22.00;99.90
6407;DHT22;3236;51.022;6.818;2023-05-07T14:12:48;21.90;99.90
6407;DHT22;3236;51.022;6.818;2023-05-07T14:15:15;21.80;99.90
6407;DHT22;3236;51.022;6.818;2023-05-07T14:17:42;21.40;99.90
6407;DHT22;3236;51.022;6.818;2023-05-07T14:20:12;21.30;99.90
6407;DHT22;3236;51.022;6.818;2023-05-07T14:22:39;20.30;99.90
6407;DHT22;3236;51.022;6.818;2023-05-07T14:25:08;20.80;99.90
6407;DHT22;3236;51.022;6.818;2023-05-07T14:27:36;21.00;99.90
6407;DHT22;3236;51.022;6.818;2023-05-07T14:30:03;21.20;99.90
6407;DHT22;3236;51.022;6.818;2023-05-07T14:32:31;21.00;99.90
6407;DHT22;3236;51.022;6.818;2023-05-07T14:34:58;21.10;99.90
6407;DHT22;3236;51.022;6.818;2023-05-07T14:37:27;21.20;99.90
6407;DHT22;3236;51.022;6.818;2023-05-07T14:39:54;21.40;99.90
6407;DHT22;3236;51.022;6.818;2023-05-07T14:42:21;21.20;99.90
6407;DHT22;3236;51.022;6.818;2023-05-07T14:44:48;21.00;99.90
6407;DHT22;3236;51.022;6.818;2023-05-07T14:47:15;20.70;99.90
6407;DHT22;3236;51.022;6.818;2023-05-07T14:49:42;20.50;99.90
6407;DHT22;3236;51.022;6.818;2023-05-07T14:52:10;20.60;99.90
6407;DHT22;3236;51.022;6.818;2023-05-07T14:54:39;20.70;99.90
6407;DHT22;3236;51.022;6.818;2023-05-07T14:57:08;20.60;99.90
6407;DHT22;3236;51.022;6.818;2023-05-07T14:59:40;20.90;99.90
6407;DHT22;3236;51.022;6.818;2023-05-07T15:02:07;20.90;99.90
6407;DHT22;3236;51.022;6.818;2023-05-07T15:04:37;21.10;99.90
6407;DHT22;3236;51.022;6.818;2023-05-07T15:07:06;21.20;99.90
6407;DHT22;3236;51.022;6.818;2023-05-07T15:09:33;21.80;99.90
6407;DHT22;3236;51.022;6.818;2023-05-07T15:14:32;21.80;99.90
6407;DHT22;3236;51.022;6.818;2023-05-07T15:17:03;21.60;99.90
6407;DHT22;3236;51.022;6.818;2023-05-07T15:19:30;21.60;99.90
6407;DHT22;3236;51.022;6.818;2023-05-07T15:21:58;21.60;99.90
6407;DHT22;3236;51.022;6.818;2023-05-07T15:24:25;21.60;99.90
6407;DHT22;3236;51.022;6.818;2023-05-07T15:26:52;22.10;99.90
6407;DHT22;3236;51.022;6.818;2023-05-07T15:29:21;21.80;99.90
6407;DHT22;3236;51.022;6.818;2023-05-07T15:31:48;21.90;99.90
6407;DHT22;3236;51.022;6.818;2023-05-07T15:34:16;22.10;99.90
6407;DHT22;3236;51.022;6.818;2023-05-07T15:36:43;21.80;99.90
6407;DHT22;3236;51.022;6.818;2023-05-07T15:39:10;23.10;99.90
6407;DHT22;3236;51.022;6.818;2023-05-07T15:41:37;22.50;99.90
6407;DHT22;3236;51.022;6.818;2023-05-07T15:44:05;22.70;99.90
6407;DHT22;3236;51.022;6.818;2023-05-07T15:46:33;22.80;99.90
6407;DHT22;3236;51.022;6.818;2023-05-07T15:49:02;22.30;99.90
6407;DHT22;3236;51.022;6.818;2023-05-07T15:51:34;22.40;99.90
6407;DHT22;3236;51.022;6.818;2023-05-07T15:54:01;21.90;99.90
6407;DHT22;3236;51.022;6.818;2023-05-07T15:56:28;22.20;99.90
6407;DHT22;3236;51.022;6.818;2023-05-07T15:58:59;21.70;99.90
6407;DHT22;3236;51.022;6.818;2023-05-07T16:01:27;22.10;99.90
6407;DHT22;3236;51.022;6.818;2023-05-07T16:03:55;21.90;99.90
6407;DHT22;3236;51.022;6.818;2023-05-07T16:06:22;22.10;99.90
6407;DHT22;3236;51.022;6.818;2023-05-07T16:08:55;21.90;99.90
6407;DHT22;3236;51.022;6.818;2023-05-07T16:11:22;22.50;99.90
6407;DHT22;3236;51.022;6.818;2023-05-07T16:13:49;22.00;99.90
6407;DHT22;3236;51.022;6.818;2023-05-07T16:16:16;22.10;99.90
6407;DHT22;3236;51.022;6.818;2023-05-07T16:18:43;22.30;99.90
6407;DHT22;3236;51.022;6.818;2023-05-07T16:23:40;22.60;99.90
6407;DHT22;3236;51.022;6.818;2023-05-07T16:26:07;22.40;99.90
6407;DHT22;3236;51.022;6.818;2023-05-07T16:28:37;21.80;99.90
6407;DHT22;3236;51.022;6.818;2023-05-07T16:31:06;21.90;99.90
6407;DHT22;3236;51.022;6.818;2023-05-07T16:33:34;21.60;99.90
6407;DHT22;3236;51.022;6.818;2023-05-07T16:36:05;21.40;99.90
6407;DHT22;3236;51.022;6.818;2023-05-07T16:38:33;21.50;99.90
6407;DHT22;3236;51.022;6.818;2023-05-07T16:41:00;21.30;99.90